sensor_id;sensor_type;location;lat;lon;timestamp;pressure;altitude;pressure_sealevel;temperature;humidity
79686;BME280;69153;47.918;11.428;2023-05-10T00:01:02;94590.53;;;15.91;65.53
79686;BME280;69153;47.918;11.428;2023-05-10T00:03:29;94589.66;;;15.99;65.40
79686;BME280;69153;47.918;11.428;2023-05-10T00:05:54;94587.28;;;15.87;65.63
79686;BME280;69153;47.918;11.428;2023-05-10T00:08:20;94591.06;;;15.95;65.22
79686;BME280;69153;47.918;11.428;2023-05-10T00:10:45;94592.53;;;15.96;65.08
79686;BME280;69153;47.918;11.428;2023-05-10T00:13:11;94592.13;;;16.03;64.94
79686;BME280;69153;47.918;11.428;2023-05-10T00:15:36;94589.75;;;16.05;64.90
79686;BME280;69153;47.918;11.428;2023-05-10T00:18:02;94589.75;;;16.05;64.84
79686;BME280;69153;47.918;11.428;2023-05-10T00:20:27;94591.47;;;15.73;66.21
79686;BME280;69153;47.918;11.428;2023-05-10T00:22:52;94590.56;;;15.61;66.30
79686;BME280;69153;47.918;11.428;2023-05-10T00:25:18;94595.56;;;15.68;65.78
79686;BME280;69153;47.918;11.428;2023-05-10T00:27:43;94588.53;;;15.71;65.55
79686;BME280;69153;47.918;11.428;2023-05-10T00:30:09;94580.41;;;15.80;65.20
79686;BME280;69153;47.918;11.428;2023-05-10T00:32:34;94582.19;;;15.68;64.98
79686;BME280;69153;47.918;11.428;2023-05-10T00:35:00;94587.06;;;15.70;65.38
79686;BME280;69153;47.918;11.428;2023-05-10T00:37:26;94587.59;;;15.74;64.32
79686;BME280;69153;47.918;11.428;2023-05-10T00:39:52;94584.97;;;15.30;66.43
79686;BME280;69153;47.918;11.428;2023-05-10T00:42:17;94585.34;;;15.23;66.59
79686;BME280;69153;47.918;11.428;2023-05-10T00:44:43;94590.16;;;15.19;66.74
79686;BME280;69153;47.918;11.428;2023-05-10T00:47:08;94574.03;;;15.13;67.28
79686;BME280;69153;47.918;11.428;2023-05-10T00:49:36;94580.84;;;15.29;66.92
79686;BME280;69153;47.918;11.428;2023-05-10T00:52:01;94582.66;;;15.52;66.03
79686;BME280;69153;47.918;11.428;2023-05-10T00:54:28;94576.13;;;15.38;66.59
79686;BME280;69153;47.918;11.428;2023-05-10T00:56:53;94573.00;;;15.40;66.82
79686;BME280;69153;47.918;11.428;2023-05-10T00:59:19;94575.13;;;15.21;66.96
79686;BME280;69153;47.918;11.428;2023-05-10T01:01:46;94573.00;;;15.40;66.83
79686;BME280;69153;47.918;11.428;2023-05-10T01:04:13;94572.91;;;15.34;67.34
79686;BME280;69153;47.918;11.428;2023-05-10T01:06:42;94572.34;;;15.60;66.54
79686;BME280;69153;47.918;11.428;2023-05-10T01:09:08;94571.25;;;15.66;65.99
79686;BME280;69153;47.918;11.428;2023-05-10T01:11:39;94571.66;;;15.80;65.62
79686;BME280;69153;47.918;11.428;2023-05-10T01:14:06;94575.28;;;15.47;66.63
79686;BME280;69153;47.918;11.428;2023-05-10T01:16:38;94573.06;;;15.46;66.77
79686;BME280;69153;47.918;11.428;2023-05-10T01:19:12;94574.09;;;15.48;66.62
79686;BME280;69153;47.918;11.428;2023-05-10T01:24:46;94570.97;;;15.35;67.24
79686;BME280;69153;47.918;11.428;2023-05-10T01:33:01;94566.38;;;15.35;67.03
79686;BME280;69153;47.918;11.428;2023-05-10T01:38:33;94566.69;;;15.72;65.64
79686;BME280;69153;47.918;11.428;2023-05-10T01:41:14;94561.19;;;15.47;66.41
79686;BME280;69153;47.918;11.428;2023-05-10T01:46:36;94567.16;;;15.71;65.60
79686;BME280;69153;47.918;11.428;2023-05-10T01:49:20;94563.09;;;15.76;65.46
79686;BME280;69153;47.918;11.428;2023-05-10T01:51:52;94565.44;;;15.68;65.70
79686;BME280;69153;47.918;11.428;2023-05-10T01:54:21;94565.59;;;15.79;65.49
79686;BME280;69153;47.918;11.428;2023-05-10T01:57:01;94561.59;;;15.89;64.78
79686;BME280;69153;47.918;11.428;2023-05-10T01:59:33;94561.03;;;15.85;65.22
79686;BME280;69153;47.918;11.428;2023-05-10T02:02:04;94559.09;;;15.86;65.11
79686;BME280;69153;47.918;11.428;2023-05-10T02:04:35;94563.25;;;15.87;64.77
79686;BME280;69153;47.918;11.428;2023-05-10T02:07:04;94565.13;;;15.81;65.15
79686;BME280;69153;47.918;11.428;2023-05-10T02:09:33;94568.25;;;15.79;65.45
79686;BME280;69153;47.918;11.428;2023-05-10T02:12:01;94574.06;;;15.78;65.13
79686;BME280;69153;47.918;11.428;2023-05-10T02:14:30;94568.81;;;15.83;64.95
79686;BME280;69153;47.918;11.428;2023-05-10T02:16:59;94567.97;;;15.77;65.13
79686;BME280;69153;47.918;11.428;2023-05-10T02:19:28;94573.50;;;15.73;65.21
79686;BME280;69153;47.918;11.428;2023-05-10T02:21:56;94573.41;;;15.83;65.12
79686;BME280;69153;47.918;11.428;2023-05-10T02:24:25;94567.84;;;15.86;64.82
79686;BME280;69153;47.918;11.428;2023-05-10T02:26:54;94572.47;;;15.86;64.71
79686;BME280;69153;47.918;11.428;2023-05-10T02:29:23;94568.72;;;15.78;64.80
79686;BME280;69153;47.918;11.428;2023-05-10T02:31:53;94573.13;;;15.81;64.83
79686;BME280;69153;47.918;11.428;2023-05-10T02:34:21;94578.34;;;15.69;65.00
79686;BME280;69153;47.918;11.428;2023-05-10T02:36:50;94577.84;;;15.71;65.07
79686;BME280;69153;47.918;11.428;2023-05-10T02:39:19;94577.59;;;15.69;65.30
79686;BME280;69153;47.918;11.428;2023-05-10T02:41:46;94578.78;;;15.68;64.78
79686;BME280;69153;47.918;11.428;2023-05-10T02:44:17;94575.38;;;15.53;65.22
79686;BME280;69153;47.918;11.428;2023-05-10T02:46:43;94584.59;;;15.37;66.20
79686;BME280;69153;47.918;11.428;2023-05-10T02:49:09;94578.50;;;15.51;65.27
79686;BME280;69153;47.918;11.428;2023-05-10T02:51:40;94575.69;;;15.25;65.83
79686;BME280;69153;47.918;11.428;2023-05-10T02:54:12;94584.16;;;15.24;66.22
79686;BME280;69153;47.918;11.428;2023-05-10T02:56:43;94578.63;;;15.27;65.97
79686;BME280;69153;47.918;11.428;2023-05-10T02:59:12;94584.72;;;15.28;65.47
79686;BME280;69153;47.918;11.428;2023-05-10T03:01:37;94579.47;;;15.04;66.23
79686;BME280;69153;47.918;11.428;2023-05-10T03:04:03;94587.00;;;14.91;66.75
79686;BME280;69153;47.918;11.428;2023-05-10T03:06:29;94590.19;;;14.65;67.23
79686;BME280;69153;47.918;11.428;2023-05-10T03:08:54;94588.38;;;14.86;66.57
79686;BME280;69153;47.918;11.428;2023-05-10T03:11:43;94594.16;;;14.99;66.21
79686;BME280;69153;47.918;11.428;2023-05-10T03:14:42;94587.50;;;14.80;66.51
79686;BME280;69153;47.918;11.428;2023-05-10T03:19:53;94597.47;;;14.94;66.19
79686;BME280;69153;47.918;11.428;2023-05-10T03:22:25;94592.84;;;14.80;66.88
79686;BME280;69153;47.918;11.428;2023-05-10T03:24:55;94596.75;;;14.55;67.63
79686;BME280;69153;47.918;11.428;2023-05-10T03:27:23;94598.97;;;14.33;68.08
79686;BME280;69153;47.918;11.428;2023-05-10T03:29:50;94596.22;;;14.27;68.46
79686;BME280;69153;47.918;11.428;2023-05-10T03:32:17;94604.19;;;14.27;68.65
79686;BME280;69153;47.918;11.428;2023-05-10T03:34:43;94604.09;;;14.46;68.03
79686;BME280;69153;47.918;11.428;2023-05-10T03:37:09;94595.75;;;14.53;67.51
79686;BME280;69153;47.918;11.428;2023-05-10T03:39:35;94601.84;;;14.53;67.85
79686;BME280;69153;47.918;11.428;2023-05-10T03:42:00;94610.16;;;14.46;67.63
79686;BME280;69153;47.918;11.428;2023-05-10T03:44:25;94610.50;;;14.63;66.91
79686;BME280;69153;47.918;11.428;2023-05-10T03:46:51;94611.31;;;14.69;66.27
79686;BME280;69153;47.918;11.428;2023-05-10T03:49:17;94614.00;;;14.45;66.43
79686;BME280;69153;47.918;11.428;2023-05-10T03:51:43;94612.28;;;14.09;67.78
79686;BME280;69153;47.918;11.428;2023-05-10T03:54:09;94604.97;;;14.19;67.74
79686;BME280;69153;47.918;11.428;2023-05-10T03:56:34;94617.38;;;13.98;68.34
79686;BME280;69153;47.918;11.428;2023-05-10T03:59:00;94620.78;;;13.99;68.43
79686;BME280;69153;47.918;11.428;2023-05-10T04:01:27;94619.38;;;13.88;68.41
79686;BME280;69153;47.918;11.428;2023-05-10T04:03:52;94618.22;;;14.04;67.92
79686;BME280;69153;47.918;11.428;2023-05-10T04:06:17;94622.06;;;14.03;67.87
79686;BME280;69153;47.918;11.428;2023-05-10T04:08:43;94618.22;;;14.04;67.84
79686;BME280;69153;47.918;11.428;2023-05-10T04:11:10;94625.09;;;14.20;67.62
79686;BME280;69153;47.918;11.428;2023-05-10T04:13:36;94623.69;;;14.34;66.88
79686;BME280;69153;47.918;11.428;2023-05-10T04:16:02;94625.75;;;14.15;67.72
79686;BME280;69153;47.918;11.428;2023-05-10T04:18:28;94626.00;;;14.17;67.42
79686;BME280;69153;47.918;11.428;2023-05-10T04:20:53;94626.72;;;14.26;67.30
79686;BME280;69153;47.918;11.428;2023-05-10T04:23:19;94623.59;;;14.52;66.45
79686;BME280;69153;47.918;11.428;2023-05-10T04:25:44;94626.59;;;14.21;67.69
79686;BME280;69153;47.918;11.428;2023-05-10T04:28:11;94631.47;;;14.22;66.87
79686;BME280;69153;47.918;11.428;2023-05-10T04:30:37;94635.69;;;14.29;67.28
79686;BME280;69153;47.918;11.428;2023-05-10T04:33:02;94637.00;;;14.34;67.14
79686;BME280;69153;47.918;11.428;2023-05-10T04:35:28;94632.13;;;14.32;66.94
79686;BME280;69153;47.918;11.428;2023-05-10T04:37:54;94632.53;;;14.16;67.62
79686;BME280;69153;47.918;11.428;2023-05-10T04:40:19;94649.13;;;14.44;66.96
79686;BME280;69153;47.918;11.428;2023-05-10T04:42:46;94638.75;;;14.46;66.30
79686;BME280;69153;47.918;11.428;2023-05-10T04:45:12;94646.78;;;14.37;66.65
79686;BME280;69153;47.918;11.428;2023-05-10T04:47:37;94637.31;;;14.59;66.14
79686;BME280;69153;47.918;11.428;2023-05-10T04:50:04;94638.13;;;14.51;66.29
79686;BME280;69153;47.918;11.428;2023-05-10T04:52:29;94643.97;;;14.31;66.62
79686;BME280;69153;47.918;11.428;2023-05-10T04:54:55;94650.41;;;14.24;67.11
79686;BME280;69153;47.918;11.428;2023-05-10T04:57:20;94646.31;;;14.14;67.65
79686;BME280;69153;47.918;11.428;2023-05-10T04:59:45;94654.13;;;13.85;67.99
79686;BME280;69153;47.918;11.428;2023-05-10T05:02:11;94654.34;;;13.72;68.48
79686;BME280;69153;47.918;11.428;2023-05-10T05:04:36;94657.47;;;13.62;68.82
79686;BME280;69153;47.918;11.428;2023-05-10T05:07:02;94665.72;;;13.64;69.31
79686;BME280;69153;47.918;11.428;2023-05-10T05:09:27;94662.69;;;13.47;69.29
79686;BME280;69153;47.918;11.428;2023-05-10T05:11:53;94665.09;;;13.78;68.77
79686;BME280;69153;47.918;11.428;2023-05-10T05:14:18;94665.78;;;13.97;68.13
79686;BME280;69153;47.918;11.428;2023-05-10T05:16:45;94659.88;;;14.25;66.94
79686;BME280;69153;47.918;11.428;2023-05-10T05:19:11;94665.56;;;14.42;66.42
79686;BME280;69153;47.918;11.428;2023-05-10T05:21:36;94670.25;;;14.23;67.09
79686;BME280;69153;47.918;11.428;2023-05-10T05:24:02;94669.28;;;14.03;67.89
79686;BME280;69153;47.918;11.428;2023-05-10T05:26:28;94674.63;;;14.36;66.46
79686;BME280;69153;47.918;11.428;2023-05-10T05:28:53;94679.16;;;14.68;65.84
79686;BME280;69153;47.918;11.428;2023-05-10T05:31:20;94665.72;;;14.86;63.90
79686;BME280;69153;47.918;11.428;2023-05-10T05:33:46;94679.44;;;14.94;63.75
79686;BME280;69153;47.918;11.428;2023-05-10T05:36:11;94677.25;;;14.92;63.37
79686;BME280;69153;47.918;11.428;2023-05-10T05:38:37;94683.69;;;15.00;63.50
79686;BME280;69153;47.918;11.428;2023-05-10T05:41:02;94686.53;;;14.97;62.51
79686;BME280;69153;47.918;11.428;2023-05-10T05:43:28;94688.16;;;15.18;62.06
79686;BME280;69153;47.918;11.428;2023-05-10T05:45:54;94688.34;;;15.44;60.67
79686;BME280;69153;47.918;11.428;2023-05-10T05:48:20;94685.28;;;15.36;60.98
79686;BME280;69153;47.918;11.428;2023-05-10T05:50:46;94693.94;;;15.46;60.64
79686;BME280;69153;47.918;11.428;2023-05-10T05:53:11;94692.97;;;15.44;60.47
79686;BME280;69153;47.918;11.428;2023-05-10T05:55:37;94695.59;;;15.29;61.71
79686;BME280;69153;47.918;11.428;2023-05-10T05:58:02;94696.09;;;15.42;61.80
79686;BME280;69153;47.918;11.428;2023-05-10T06:00:28;94706.44;;;15.64;60.90
79686;BME280;69153;47.918;11.428;2023-05-10T06:02:53;94704.13;;;15.57;61.74
79686;BME280;69153;47.918;11.428;2023-05-10T06:05:20;94701.72;;;15.44;62.36
79686;BME280;69153;47.918;11.428;2023-05-10T06:07:46;94704.00;;;15.51;61.94
79686;BME280;69153;47.918;11.428;2023-05-10T06:10:11;94714.44;;;15.64;61.75
79686;BME280;69153;47.918;11.428;2023-05-10T06:12:38;94715.19;;;15.26;63.22
79686;BME280;69153;47.918;11.428;2023-05-10T06:15:04;94707.38;;;15.37;63.39
79686;BME280;69153;47.918;11.428;2023-05-10T06:17:30;94713.94;;;15.51;62.75
79686;BME280;69153;47.918;11.428;2023-05-10T06:19:56;94723.66;;;15.63;62.31
79686;BME280;69153;47.918;11.428;2023-05-10T06:22:21;94720.06;;;15.81;61.97
79686;BME280;69153;47.918;11.428;2023-05-10T06:24:49;94720.88;;;15.87;62.13
79686;BME280;69153;47.918;11.428;2023-05-10T06:27:15;94724.56;;;15.89;60.85
79686;BME280;69153;47.918;11.428;2023-05-10T06:29:40;94729.72;;;15.93;61.33
79686;BME280;69153;47.918;11.428;2023-05-10T06:32:06;94722.81;;;16.01;60.40
79686;BME280;69153;47.918;11.428;2023-05-10T06:34:32;94732.59;;;15.89;60.51
79686;BME280;69153;47.918;11.428;2023-05-10T06:36:57;94728.25;;;15.77;60.81
79686;BME280;69153;47.918;11.428;2023-05-10T06:39:22;94729.44;;;15.91;60.72
79686;BME280;69153;47.918;11.428;2023-05-10T06:41:48;94735.53;;;15.91;59.56
79686;BME280;69153;47.918;11.428;2023-05-10T06:44:13;94737.63;;;15.87;60.16
79686;BME280;69153;47.918;11.428;2023-05-10T06:46:39;94739.13;;;16.03;59.20
79686;BME280;69153;47.918;11.428;2023-05-10T06:49:04;94740.78;;;16.00;59.27
79686;BME280;69153;47.918;11.428;2023-05-10T06:51:30;94746.22;;;15.91;59.67
79686;BME280;69153;47.918;11.428;2023-05-10T06:53:55;94742.63;;;15.94;60.40
79686;BME280;69153;47.918;11.428;2023-05-10T06:56:21;94749.97;;;15.99;59.51
79686;BME280;69153;47.918;11.428;2023-05-10T06:58:47;94753.19;;;16.18;58.27
79686;BME280;69153;47.918;11.428;2023-05-10T07:01:13;94754.31;;;15.97;58.90
79686;BME280;69153;47.918;11.428;2023-05-10T07:03:38;94756.06;;;16.15;58.94
79686;BME280;69153;47.918;11.428;2023-05-10T07:06:04;94757.78;;;16.32;58.42
79686;BME280;69153;47.918;11.428;2023-05-10T07:08:31;94751.97;;;16.34;57.49
79686;BME280;69153;47.918;11.428;2023-05-10T07:11:04;94761.50;;;16.20;58.00
79686;BME280;69153;47.918;11.428;2023-05-10T07:13:33;94757.97;;;16.29;58.56
79686;BME280;69153;47.918;11.428;2023-05-10T07:16:00;94756.66;;;16.39;57.77
79686;BME280;69153;47.918;11.428;2023-05-10T07:18:26;94759.53;;;16.35;57.20
79686;BME280;69153;47.918;11.428;2023-05-10T07:20:52;94761.91;;;16.48;57.54
79686;BME280;69153;47.918;11.428;2023-05-10T07:23:18;94762.06;;;16.59;56.75
79686;BME280;69153;47.918;11.428;2023-05-10T07:25:47;94759.00;;;16.02;57.29
79686;BME280;69153;47.918;11.428;2023-05-10T07:28:14;94766.19;;;16.25;58.04
79686;BME280;69153;47.918;11.428;2023-05-10T07:30:40;94761.44;;;16.50;57.48
79686;BME280;69153;47.918;11.428;2023-05-10T07:33:07;94770.00;;;16.68;57.22
79686;BME280;69153;47.918;11.428;2023-05-10T07:35:35;94766.72;;;16.29;57.09
79686;BME280;69153;47.918;11.428;2023-05-10T07:38:01;94764.22;;;16.40;57.31
79686;BME280;69153;47.918;11.428;2023-05-10T07:40:27;94764.84;;;16.50;57.13
79686;BME280;69153;47.918;11.428;2023-05-10T07:42:54;94760.97;;;16.66;56.26
79686;BME280;69153;47.918;11.428;2023-05-10T07:45:19;94757.81;;;16.67;56.43
79686;BME280;69153;47.918;11.428;2023-05-10T07:47:45;94766.09;;;17.25;56.37
79686;BME280;69153;47.918;11.428;2023-05-10T07:50:10;94773.69;;;17.32;54.57
79686;BME280;69153;47.918;11.428;2023-05-10T07:52:36;94766.06;;;17.91;53.16
79686;BME280;69153;47.918;11.428;2023-05-10T07:55:01;94763.59;;;18.19;53.52
79686;BME280;69153;47.918;11.428;2023-05-10T07:57:27;94767.81;;;18.31;53.42
79686;BME280;69153;47.918;11.428;2023-05-10T07:59:52;94762.03;;;17.81;53.52
79686;BME280;69153;47.918;11.428;2023-05-10T08:02:18;94760.00;;;17.24;53.63
79686;BME280;69153;47.918;11.428;2023-05-10T08:04:44;94760.53;;;17.54;53.75
79686;BME280;69153;47.918;11.428;2023-05-10T08:07:09;94754.59;;;17.91;51.80
79686;BME280;69153;47.918;11.428;2023-05-10T08:09:37;94759.06;;;17.99;52.50
79686;BME280;69153;47.918;11.428;2023-05-10T08:12:02;94756.19;;;18.08;51.40
79686;BME280;69153;47.918;11.428;2023-05-10T08:14:29;94767.38;;;18.01;53.13
79686;BME280;69153;47.918;11.428;2023-05-10T08:16:54;94762.63;;;18.16;51.06
79686;BME280;69153;47.918;11.428;2023-05-10T08:19:20;94760.16;;;18.18;51.65
79686;BME280;69153;47.918;11.428;2023-05-10T08:21:47;94760.78;;;18.02;51.25
79686;BME280;69153;47.918;11.428;2023-05-10T08:24:12;94758.59;;;18.01;51.16
79686;BME280;69153;47.918;11.428;2023-05-10T08:26:38;94763.47;;;18.02;52.24
79686;BME280;69153;47.918;11.428;2023-05-10T08:29:03;94765.88;;;18.00;51.78
79686;BME280;69153;47.918;11.428;2023-05-10T08:31:29;94766.31;;;18.25;52.22
79686;BME280;69153;47.918;11.428;2023-05-10T08:33:55;94766.16;;;18.65;50.90
79686;BME280;69153;47.918;11.428;2023-05-10T08:36:24;94759.88;;;18.79;49.97
79686;BME280;69153;47.918;11.428;2023-05-10T08:38:54;94770.16;;;18.86;49.78
79686;BME280;69153;47.918;11.428;2023-05-10T08:41:21;94764.63;;;18.59;49.51
79686;BME280;69153;47.918;11.428;2023-05-10T08:43:50;94762.38;;;18.20;51.29
79686;BME280;69153;47.918;11.428;2023-05-10T08:46:17;94764.44;;;18.05;51.22
79686;BME280;69153;47.918;11.428;2023-05-10T08:48:47;94771.78;;;17.78;51.24
79686;BME280;69153;47.918;11.428;2023-05-10T08:51:22;94768.47;;;17.63;52.05
79686;BME280;69153;47.918;11.428;2023-05-10T08:53:52;94771.53;;;17.56;51.17
79686;BME280;69153;47.918;11.428;2023-05-10T08:56:18;94768.34;;;17.52;51.79
79686;BME280;69153;47.918;11.428;2023-05-10T08:58:45;94770.75;;;17.50;52.81
79686;BME280;69153;47.918;11.428;2023-05-10T09:01:13;94775.94;;;17.59;52.57
79686;BME280;69153;47.918;11.428;2023-05-10T09:03:39;94768.50;;;17.69;51.72
79686;BME280;69153;47.918;11.428;2023-05-10T09:06:05;94762.47;;;17.74;52.00
79686;BME280;69153;47.918;11.428;2023-05-10T09:08:32;94765.09;;;17.68;52.89
79686;BME280;69153;47.918;11.428;2023-05-10T09:11:00;94774.81;;;17.66;52.79
79686;BME280;69153;47.918;11.428;2023-05-10T09:13:28;94775.47;;;17.61;52.08
79686;BME280;69153;47.918;11.428;2023-05-10T09:15:58;94771.69;;;17.27;51.90
79686;BME280;69153;47.918;11.428;2023-05-10T09:18:24;94774.03;;;17.19;52.64
79686;BME280;69153;47.918;11.428;2023-05-10T09:20:49;94773.69;;;17.32;52.80
79686;BME280;69153;47.918;11.428;2023-05-10T09:23:14;94769.63;;;17.36;52.42
79686;BME280;69153;47.918;11.428;2023-05-10T09:25:41;94767.06;;;17.27;53.11
79686;BME280;69153;47.918;11.428;2023-05-10T09:28:08;94776.00;;;17.39;52.93
79686;BME280;69153;47.918;11.428;2023-05-10T09:30:34;94783.75;;;17.17;52.61
79686;BME280;69153;47.918;11.428;2023-05-10T09:33:02;94781.06;;;16.96;54.16
79686;BME280;69153;47.918;11.428;2023-05-10T09:35:30;94782.19;;;16.40;55.99
79686;BME280;69153;47.918;11.428;2023-05-10T09:37:58;94785.13;;;16.71;55.93
79686;BME280;69153;47.918;11.428;2023-05-10T09:40:27;94785.13;;;16.92;56.47
79686;BME280;69153;47.918;11.428;2023-05-10T09:43:02;94779.81;;;17.12;56.92
79686;BME280;69153;47.918;11.428;2023-05-10T09:45:30;94783.28;;;17.18;55.83
79686;BME280;69153;47.918;11.428;2023-05-10T09:47:56;94781.00;;;17.31;56.03
79686;BME280;69153;47.918;11.428;2023-05-10T09:50:23;94779.38;;;17.60;54.71
79686;BME280;69153;47.918;11.428;2023-05-10T09:52:57;94779.59;;;17.82;54.73
79686;BME280;69153;47.918;11.428;2023-05-10T09:55:42;94775.66;;;18.03;52.37
79686;BME280;69153;47.918;11.428;2023-05-10T09:58:10;94765.78;;;18.20;51.67
79686;BME280;69153;47.918;11.428;2023-05-10T10:00:37;94769.34;;;18.06;53.88
79686;BME280;69153;47.918;11.428;2023-05-10T10:03:04;94769.03;;;17.99;54.47
79686;BME280;69153;47.918;11.428;2023-05-10T10:05:34;94772.72;;;18.33;55.56
79686;BME280;69153;47.918;11.428;2023-05-10T10:08:02;94766.53;;;18.52;54.37
79686;BME280;69153;47.918;11.428;2023-05-10T10:10:28;94769.19;;;18.89;51.13
79686;BME280;69153;47.918;11.428;2023-05-10T10:12:55;94767.88;;;19.22;52.21
79686;BME280;69153;47.918;11.428;2023-05-10T10:15:21;94760.81;;;19.19;50.57
79686;BME280;69153;47.918;11.428;2023-05-10T10:17:48;94775.69;;;19.20;47.85
79686;BME280;69153;47.918;11.428;2023-05-10T10:20:15;94759.97;;;19.02;49.06
79686;BME280;69153;47.918;11.428;2023-05-10T10:22:41;94764.28;;;18.82;48.89
79686;BME280;69153;47.918;11.428;2023-05-10T10:25:08;94763.41;;;18.60;51.50
79686;BME280;69153;47.918;11.428;2023-05-10T10:27:56;94765.47;;;18.44;50.55
79686;BME280;69153;47.918;11.428;2023-05-10T10:35:37;94779.22;;;17.95;54.76
79686;BME280;69153;47.918;11.428;2023-05-10T10:38:04;94777.25;;;17.90;55.75
79686;BME280;69153;47.918;11.428;2023-05-10T10:40:33;94781.53;;;17.81;55.71
79686;BME280;69153;47.918;11.428;2023-05-10T10:48:35;94775.09;;;17.27;54.77
79686;BME280;69153;47.918;11.428;2023-05-10T10:51:01;94775.66;;;17.11;53.74
79686;BME280;69153;47.918;11.428;2023-05-10T10:53:29;94782.13;;;16.84;54.18
79686;BME280;69153;47.918;11.428;2023-05-10T10:56:15;94782.72;;;16.73;54.60
79686;BME280;69153;47.918;11.428;2023-05-10T10:58:41;94796.88;;;16.00;56.57
79686;BME280;69153;47.918;11.428;2023-05-10T11:01:17;94799.28;;;15.45;56.99
79686;BME280;69153;47.918;11.428;2023-05-10T11:06:34;94803.50;;;15.13;57.46
79686;BME280;69153;47.918;11.428;2023-05-10T11:09:10;94811.41;;;15.08;57.49
79686;BME280;69153;47.918;11.428;2023-05-10T11:11:52;94816.19;;;15.27;57.31
79686;BME280;69153;47.918;11.428;2023-05-10T11:14:23;94814.22;;;15.52;57.23
79686;BME280;69153;47.918;11.428;2023-05-10T11:16:48;94817.97;;;15.69;57.09
79686;BME280;69153;47.918;11.428;2023-05-10T11:19:16;94824.25;;;15.81;57.36
79686;BME280;69153;47.918;11.428;2023-05-10T11:21:47;94823.13;;;15.72;57.39
79686;BME280;69153;47.918;11.428;2023-05-10T11:24:16;94823.84;;;15.73;57.73
79686;BME280;69153;47.918;11.428;2023-05-10T11:26:42;94822.38;;;15.72;58.01
79686;BME280;69153;47.918;11.428;2023-05-10T11:29:09;94818.97;;;15.57;58.98
79686;BME280;69153;47.918;11.428;2023-05-10T11:31:35;94828.84;;;15.18;60.61
79686;BME280;69153;47.918;11.428;2023-05-10T11:34:08;94817.81;;;15.25;60.82
79686;BME280;69153;47.918;11.428;2023-05-10T11:36:34;94821.28;;;15.16;62.01
79686;BME280;69153;47.918;11.428;2023-05-10T11:39:01;94815.66;;;15.14;62.13
79686;BME280;69153;47.918;11.428;2023-05-10T11:41:29;94815.44;;;15.27;62.30
79686;BME280;69153;47.918;11.428;2023-05-10T11:43:56;94819.69;;;15.10;62.63
79686;BME280;69153;47.918;11.428;2023-05-10T11:46:25;94822.47;;;14.91;63.17
79686;BME280;69153;47.918;11.428;2023-05-10T11:48:55;94821.06;;;15.05;63.29
79686;BME280;69153;47.918;11.428;2023-05-10T11:51:23;94826.00;;;14.97;63.57
79686;BME280;69153;47.918;11.428;2023-05-10T11:53:52;94828.59;;;15.07;61.53
79686;BME280;69153;47.918;11.428;2023-05-10T11:56:17;94821.91;;;15.11;63.03
79686;BME280;69153;47.918;11.428;2023-05-10T11:58:43;94834.50;;;15.34;62.53
79686;BME280;69153;47.918;11.428;2023-05-10T12:01:09;94827.97;;;15.35;62.33
79686;BME280;69153;47.918;11.428;2023-05-10T12:03:36;94832.03;;;15.46;62.26
79686;BME280;69153;47.918;11.428;2023-05-10T12:06:03;94829.00;;;15.62;62.24
79686;BME280;69153;47.918;11.428;2023-05-10T12:08:29;94826.63;;;15.40;62.48
79686;BME280;69153;47.918;11.428;2023-05-10T12:11:09;94830.09;;;15.55;61.57
79686;BME280;69153;47.918;11.428;2023-05-10T12:13:44;94836.72;;;15.60;61.97
79686;BME280;69153;47.918;11.428;2023-05-10T12:18:56;94837.69;;;15.86;61.19
79686;BME280;69153;47.918;11.428;2023-05-10T12:21:22;94839.13;;;15.72;61.83
79686;BME280;69153;47.918;11.428;2023-05-10T12:23:50;94839.59;;;15.47;62.54
79686;BME280;69153;47.918;11.428;2023-05-10T12:26:16;94844.03;;;15.50;63.39
79686;BME280;69153;47.918;11.428;2023-05-10T12:28:42;94833.06;;;15.72;62.04
79686;BME280;69153;47.918;11.428;2023-05-10T12:31:07;94834.69;;;15.55;62.35
79686;BME280;69153;47.918;11.428;2023-05-10T12:33:41;94835.06;;;15.38;63.90
79686;BME280;69153;47.918;11.428;2023-05-10T12:36:13;94843.28;;;15.73;62.81
79686;BME280;69153;47.918;11.428;2023-05-10T12:38:43;94836.00;;;15.74;63.56
79686;BME280;69153;47.918;11.428;2023-05-10T12:41:12;94848.13;;;15.36;62.35
79686;BME280;69153;47.918;11.428;2023-05-10T12:43:39;94843.38;;;15.41;63.45
79686;BME280;69153;47.918;11.428;2023-05-10T12:46:16;94840.03;;;15.55;62.89
79686;BME280;69153;47.918;11.428;2023-05-10T12:48:57;94849.56;;;15.70;61.70
79686;BME280;69153;47.918;11.428;2023-05-10T12:51:23;94845.13;;;15.67;62.20
79686;BME280;69153;47.918;11.428;2023-05-10T12:53:48;94855.59;;;15.95;60.80
79686;BME280;69153;47.918;11.428;2023-05-10T12:56:13;94850.72;;;16.08;57.95
79686;BME280;69153;47.918;11.428;2023-05-10T12:58:39;94857.72;;;16.20;58.47
79686;BME280;69153;47.918;11.428;2023-05-10T13:01:05;94852.84;;;16.04;58.49
79686;BME280;69153;47.918;11.428;2023-05-10T13:03:30;94861.75;;;16.01;59.07
79686;BME280;69153;47.918;11.428;2023-05-10T13:05:56;94863.41;;;15.98;57.80
79686;BME280;69153;47.918;11.428;2023-05-10T13:08:21;94863.50;;;15.89;59.08
79686;BME280;69153;47.918;11.428;2023-05-10T13:10:47;94865.56;;;15.47;59.82
79686;BME280;69153;47.918;11.428;2023-05-10T13:13:14;94865.31;;;15.68;59.91
79686;BME280;69153;47.918;11.428;2023-05-10T13:15:40;94867.03;;;15.95;58.16
79686;BME280;69153;47.918;11.428;2023-05-10T13:18:05;94867.28;;;15.97;58.85
79686;BME280;69153;47.918;11.428;2023-05-10T13:20:32;94874.63;;;15.88;57.87
79686;BME280;69153;47.918;11.428;2023-05-10T13:22:57;94867.03;;;15.95;58.36
79686;BME280;69153;47.918;11.428;2023-05-10T13:25:23;94860.38;;;15.91;57.83